NCAR-RAP Real-Time Weather Data

Output produced by METARs form (23 August 2014  09:26 UTC)
found at http://weather.rap.ucar.edu/surface/
 
Conditions at: KLOU observed 23 August 2014  09:17 UTC
Temperature: 23.3°C (74°F)
Dewpoint: 22.2°C (72°F) [RH = 94%]
Pressure (altimeter): 29.98 inches Hg (1015.3 mb)
Winds: calm
Visibility: 6 miles (10 km)
Ceiling: 3800 feet AGL
Clouds: few clouds at 2900 feet AGL
broken clouds at 3800 feet AGL
overcast cloud deck at 5500 feet AGL
Present Weather: BR  (mist)
KLOU 230917Z AUTO 00000KT 6SM BR FEW029 BKN038 OVC055 23/22 A2998 RMK AO2 T02330222